createdAt,value
2017-08-08T00:00:24.930Z,1008.34
2017-08-08T00:01:20.280Z,1008.31
2017-08-08T00:02:13.892Z,1008.34
2017-08-08T00:03:13.864Z,1008.31
2017-08-08T00:04:08.847Z,1008.25
2017-08-08T00:05:09.047Z,1008.23
2017-08-08T00:06:03.139Z,1008.20
2017-08-08T00:07:03.050Z,1008.21
2017-08-08T00:07:58.035Z,1008.21
2017-08-08T00:08:58.152Z,1008.16
2017-08-08T00:09:58.245Z,1008.16
2017-08-08T00:10:58.536Z,1008.19
2017-08-08T00:11:52.541Z,1008.16
2017-08-08T00:12:53.565Z,1008.13
2017-08-08T00:13:54.277Z,1008.13
2017-08-08T00:14:49.603Z,1008.10
2017-08-08T00:15:43.371Z,1008.12
2017-08-08T00:16:43.569Z,1008.11
2017-08-08T00:17:38.483Z,1008.10
2017-08-08T00:18:38.397Z,1008.08
2017-08-08T00:19:32.465Z,1008.08
2017-08-08T00:20:32.510Z,1008.11
2017-08-08T00:21:27.693Z,1008.08
2017-08-08T00:22:22.678Z,1008.10
2017-08-08T00:23:22.658Z,1008.05
2017-08-08T00:24:17.641Z,1008.05
2017-08-08T00:25:12.638Z,1008.03
2017-08-08T00:26:12.675Z,1008.02
2017-08-08T00:27:07.727Z,1008.05
2017-08-08T00:28:02.768Z,1008.06
2017-08-08T00:29:04.220Z,1008.08
2017-08-08T00:30:03.836Z,1008.05
2017-08-08T00:31:04.042Z,1008.04
2017-08-08T00:31:58.996Z,1008.03
2017-08-08T00:32:52.958Z,1008.00
2017-08-08T00:33:52.909Z,1007.96
2017-08-08T00:34:48.440Z,1007.95
2017-08-08T00:35:48.471Z,1007.95
2017-08-08T00:36:42.539Z,1007.96
2017-08-08T00:37:42.117Z,1007.93
2017-08-08T00:38:37.155Z,1007.92
2017-08-08T00:39:32.743Z,1007.96
2017-08-08T00:40:32.561Z,1007.96
2017-08-08T00:41:27.615Z,1007.89
2017-08-08T00:42:22.283Z,1007.88
2017-08-08T00:43:23.313Z,1007.82
2017-08-08T00:44:24.455Z,1007.85
2017-08-08T00:45:19.392Z,1007.81
2017-08-08T00:46:08.471Z,1007.84
2017-08-08T00:46:56.752Z,1007.80
2017-08-08T00:47:44.674Z,1007.72
2017-08-08T00:48:32.716Z,1007.74
2017-08-08T00:49:26.681Z,1007.74
2017-08-08T00:50:15.899Z,1007.69
2017-08-08T00:51:10.859Z,1007.68
2017-08-08T00:51:59.738Z,1007.63
2017-08-08T00:52:53.785Z,1007.63
2017-08-08T00:53:42.827Z,1007.62
2017-08-08T00:54:31.124Z,1007.59
2017-08-08T00:55:30.843Z,1007.62
2017-08-08T00:56:31.227Z,1007.56
2017-08-08T00:57:24.904Z,1007.58
2017-08-08T00:58:26.389Z,1007.56
2017-08-08T00:59:27.375Z,1007.55
2017-08-08T01:00:22.073Z,1007.52
2017-08-08T01:01:16.526Z,1007.49
2017-08-08T01:02:16.148Z,1007.49
2017-08-08T01:03:11.139Z,1007.50
2017-08-08T01:04:11.638Z,1007.43
2017-08-08T01:05:05.250Z,1007.43
2017-08-08T01:06:05.560Z,1007.39
2017-08-08T01:07:00.402Z,1007.39
2017-08-08T01:07:55.474Z,1007.36
2017-08-08T01:08:55.376Z,1007.35
2017-08-08T01:09:50.580Z,1007.27
2017-08-08T01:10:45.529Z,1007.29
2017-08-08T01:11:45.531Z,1007.28
2017-08-08T01:12:40.707Z,1007.27
2017-08-08T01:13:36.077Z,1007.24
2017-08-08T01:14:37.013Z,1007.18
2017-08-08T01:15:36.604Z,1007.20
2017-08-08T01:16:37.174Z,1007.17
2017-08-08T01:17:32.054Z,1007.17
2017-08-08T01:18:25.816Z,1007.20
2017-08-08T01:19:25.865Z,1007.18
2017-08-08T01:20:21.113Z,1007.16
2017-08-08T01:21:21.269Z,1007.18
2017-08-08T01:22:15.327Z,1007.16
2017-08-08T01:23:15.286Z,1007.15
2017-08-08T01:24:09.986Z,1007.15
2017-08-08T01:25:10.134Z,1007.11
2017-08-08T01:26:10.533Z,1007.15
2017-08-08T01:27:10.395Z,1007.13
2017-08-08T01:27:59.205Z,1007.13
2017-08-08T01:28:47.186Z,1007.12
2017-08-08T01:29:42.192Z,1007.10
2017-08-08T01:30:44.439Z,1007.09
2017-08-08T01:31:31.700Z,1007.06
2017-08-08T01:32:20.286Z,1007.04
2017-08-08T01:33:08.351Z,1007.02
2017-08-08T01:33:56.777Z,1006.98
2017-08-08T01:34:45.534Z,1006.96
2017-08-08T01:35:33.701Z,1006.97
2017-08-08T01:36:21.945Z,1006.94
2017-08-08T01:37:15.704Z,1006.93
2017-08-08T01:38:03.884Z,1006.90
2017-08-08T01:39:05.176Z,1006.88
2017-08-08T01:40:04.841Z,1006.90
2017-08-08T01:40:52.876Z,1006.90
2017-08-08T01:41:41.267Z,1006.91
2017-08-08T01:42:28.835Z,1006.92
2017-08-08T01:43:30.124Z,1006.91
2017-08-08T01:44:19.156Z,1006.93
2017-08-08T01:45:19.220Z,1006.89
2017-08-08T01:46:20.402Z,1006.84
2017-08-08T01:47:14.005Z,1006.91
2017-08-08T01:48:02.414Z,1006.91
2017-08-08T01:48:56.428Z,1006.86
2017-08-08T01:49:45.195Z,1006.88
2017-08-08T01:50:40.194Z,1006.82
2017-08-08T01:51:35.568Z,1006.84
2017-08-08T01:52:24.301Z,1006.85
2017-08-08T01:53:19.507Z,1006.81
2017-08-08T01:54:13.321Z,1006.79
2017-08-08T01:55:01.455Z,1006.78
2017-08-08T01:55:55.892Z,1006.75
2017-08-08T01:56:49.476Z,1006.75
2017-08-08T01:57:44.481Z,1006.76
2017-08-08T01:58:33.481Z,1006.77
2017-08-08T01:59:27.564Z,1006.81
2017-08-08T02:00:16.567Z,1006.77
2017-08-08T02:01:04.688Z,1006.76
2017-08-08T02:01:53.632Z,1006.73
2017-08-08T02:02:47.703Z,1006.72
2017-08-08T02:03:35.694Z,1006.72
2017-08-08T02:04:24.091Z,1006.69
2017-08-08T02:05:12.161Z,1006.67
2017-08-08T02:06:05.914Z,1006.63
2017-08-08T02:06:59.919Z,1006.62
2017-08-08T02:08:00.069Z,1006.59
2017-08-08T02:08:55.041Z,1006.52
2017-08-08T02:09:55.034Z,1006.50
2017-08-08T02:10:55.539Z,1006.50
2017-08-08T02:12:01.183Z,1006.48
2017-08-08T02:13:01.152Z,1006.44
2017-08-08T02:14:02.365Z,1006.45
2017-08-08T02:14:56.203Z,1006.45
2017-08-08T02:15:56.302Z,1006.46
2017-08-08T02:16:51.273Z,1006.46
2017-08-08T02:17:51.377Z,1006.49
2017-08-08T02:18:45.325Z,1006.42
2017-08-08T02:19:45.320Z,1006.43
2017-08-08T02:20:40.408Z,1006.44
2017-08-08T02:21:35.859Z,1006.41
2017-08-08T02:22:35.411Z,1006.41
2017-08-08T02:23:30.586Z,1006.40
2017-08-08T02:24:25.572Z,1006.39
2017-08-08T02:25:26.577Z,1006.40
2017-08-08T02:26:26.553Z,1006.41
2017-08-08T02:27:26.583Z,1006.42
2017-08-08T02:28:26.653Z,1006.46
2017-08-08T02:29:27.803Z,1006.42
2017-08-08T02:30:29.107Z,1006.39
2017-08-08T02:31:23.267Z,1006.39
2017-08-08T02:32:22.827Z,1006.36
2017-08-08T02:33:17.959Z,1006.38
2017-08-08T02:34:17.907Z,1006.39
2017-08-08T02:35:17.964Z,1006.41
2017-08-08T02:36:24.437Z,1006.35
2017-08-08T02:37:19.471Z,1006.33
2017-08-08T02:38:13.065Z,1006.33
2017-08-08T02:39:13.073Z,1006.36
2017-08-08T02:40:13.042Z,1006.37
2017-08-08T02:41:08.743Z,1006.41
2017-08-08T02:42:02.242Z,1006.37
2017-08-08T02:43:02.191Z,1006.39
2017-08-08T02:43:57.356Z,1006.41
2017-08-08T02:44:57.230Z,1006.37
2017-08-08T02:45:51.406Z,1006.39
2017-08-08T02:46:51.521Z,1006.40
2017-08-08T02:47:46.371Z,1006.36
2017-08-08T02:48:41.404Z,1006.34
2017-08-08T02:49:41.440Z,1006.33
2017-08-08T02:50:36.498Z,1006.31
2017-08-08T02:51:31.877Z,1006.34
2017-08-08T02:52:32.612Z,1006.32
2017-08-08T02:53:32.590Z,1006.29
2017-08-08T02:54:32.551Z,1006.27
2017-08-08T02:55:27.584Z,1006.26
2017-08-08T02:56:22.009Z,1006.26
2017-08-08T02:57:21.758Z,1006.25
2017-08-08T02:58:16.727Z,1006.26
2017-08-08T02:59:16.994Z,1006.25
2017-08-08T03:00:11.138Z,1006.27
2017-08-08T03:01:11.277Z,1006.24
2017-08-08T03:02:06.227Z,1006.22
2017-08-08T03:03:01.127Z,1006.18
2017-08-08T03:04:01.168Z,1006.17
2017-08-08T03:04:56.094Z,1006.13
2017-08-08T03:05:51.472Z,1006.15
2017-08-08T03:06:52.302Z,1006.13
2017-08-08T03:07:52.429Z,1006.13
2017-08-08T03:08:52.518Z,1006.13
2017-08-08T03:09:52.548Z,1006.11
2017-08-08T03:10:53.483Z,1006.09
2017-08-08T03:11:54.503Z,1006.07
2017-08-08T03:12:48.624Z,1006.07
2017-08-08T03:13:48.644Z,1006.01
2017-08-08T03:14:43.659Z,1006.02
2017-08-08T03:15:38.675Z,1006.00
2017-08-08T03:16:38.687Z,1005.93
2017-08-08T03:17:33.828Z,1005.93
2017-08-08T03:18:28.782Z,1005.89
2017-08-08T03:19:28.832Z,1005.87
2017-08-08T03:20:23.836Z,1005.86
2017-08-08T03:21:18.948Z,1005.85
2017-08-08T03:22:24.925Z,1005.83
2017-08-08T03:23:18.928Z,1005.82
2017-08-08T03:24:19.047Z,1005.81
2017-08-08T03:25:14.031Z,1005.79
2017-08-08T03:26:20.079Z,1005.74
2017-08-08T03:27:20.203Z,1005.74
2017-08-08T03:28:21.192Z,1005.74
2017-08-08T03:29:15.147Z,1005.70
2017-08-08T03:30:15.206Z,1005.70
2017-08-08T03:31:10.216Z,1005.71
2017-08-08T03:32:10.293Z,1005.72
2017-08-08T03:33:10.236Z,1005.70
2017-08-08T03:34:10.434Z,1005.65
2017-08-08T03:35:04.498Z,1005.65
2017-08-08T03:36:04.457Z,1005.63
2017-08-08T03:36:59.109Z,1005.64
2017-08-08T03:37:54.145Z,1005.60
2017-08-08T03:38:55.534Z,1005.56
2017-08-08T03:39:55.230Z,1005.55
2017-08-08T03:40:55.301Z,1005.52
2017-08-08T03:41:50.281Z,1005.48
2017-08-08T03:42:44.408Z,1005.50
2017-08-08T03:43:45.589Z,1005.47
2017-08-08T03:44:45.322Z,1005.44
2017-08-08T03:45:45.763Z,1005.43
2017-08-08T03:46:40.849Z,1005.38
2017-08-08T03:47:34.834Z,1005.39
2017-08-08T03:48:34.837Z,1005.38
2017-08-08T03:49:29.962Z,1005.36
2017-08-08T03:50:30.073Z,1005.39
2017-08-08T03:51:30.053Z,1005.37
2017-08-08T03:52:25.156Z,1005.33
2017-08-08T03:53:25.113Z,1005.33
2017-08-08T03:54:20.091Z,1005.28
2017-08-08T03:55:15.170Z,1005.23
2017-08-08T03:56:09.137Z,1005.22
2017-08-08T03:56:58.307Z,1005.21
2017-08-08T03:57:53.323Z,1005.21
2017-08-08T03:58:48.247Z,1005.17
2017-08-08T03:59:48.310Z,1005.17
2017-08-08T04:00:43.634Z,1005.11
2017-08-08T04:01:32.344Z,1005.08
2017-08-08T04:02:26.442Z,1005.09
2017-08-08T04:03:20.618Z,1005.08
2017-08-08T04:04:09.587Z,1005.10
2017-08-08T04:04:57.622Z,1005.06
2017-08-08T04:05:46.672Z,1005.09
2017-08-08T04:06:40.437Z,1005.09
2017-08-08T04:07:34.767Z,1005.05
2017-08-08T04:08:28.755Z,1005.09
2017-08-08T04:09:23.867Z,1005.07
2017-08-08T04:10:17.939Z,1005.08
2017-08-08T04:11:12.038Z,1005.08
2017-08-08T04:12:00.039Z,1005.04
2017-08-08T04:12:53.988Z,1005.01
2017-08-08T04:13:54.089Z,1005.06
2017-08-08T04:14:54.016Z,1004.99
2017-08-08T04:15:54.120Z,1005.02
2017-08-08T04:16:54.338Z,1005.02
2017-08-08T04:17:54.142Z,1005.03
2017-08-08T04:18:54.245Z,1005.05
2017-08-08T04:19:54.209Z,1005.05
2017-08-08T04:20:48.282Z,1005.05
2017-08-08T04:21:42.345Z,1005.06
2017-08-08T04:22:36.341Z,1005.09
2017-08-08T04:23:25.314Z,1005.06
2017-08-08T04:24:14.371Z,1005.12
2017-08-08T04:25:03.417Z,1005.08
2017-08-08T04:26:04.512Z,1005.05
2017-08-08T04:26:58.520Z,1005.00
2017-08-08T04:27:47.693Z,1005.01
2017-08-08T04:28:36.624Z,1004.98
2017-08-08T04:29:25.681Z,1005.03
2017-08-08T04:30:13.715Z,1004.98
2017-08-08T04:31:02.795Z,1004.99
2017-08-08T04:31:56.771Z,1004.95
2017-08-08T04:32:50.888Z,1004.94
2017-08-08T04:33:50.888Z,1004.93
2017-08-08T04:34:44.906Z,1004.91
2017-08-08T04:35:39.920Z,1004.87
2017-08-08T04:36:41.045Z,1004.89
2017-08-08T04:37:36.040Z,1004.89
2017-08-08T04:38:31.035Z,1004.87
2017-08-08T04:39:19.057Z,1004.85
2017-08-08T04:40:19.144Z,1004.87
2017-08-08T04:41:14.187Z,1004.86
2017-08-08T04:42:09.260Z,1004.89
2017-08-08T04:43:09.380Z,1004.87
2017-08-08T04:44:04.466Z,1004.91
2017-08-08T04:44:59.292Z,1004.93
2017-08-08T04:45:59.432Z,1004.86
2017-08-08T04:46:53.399Z,1004.90
2017-08-08T04:47:47.509Z,1004.86
2017-08-08T04:48:48.547Z,1004.87
2017-08-08T04:49:48.636Z,1004.88
2017-08-08T04:50:43.648Z,1004.88
2017-08-08T04:51:38.677Z,1004.85
2017-08-08T04:52:27.713Z,1004.82
2017-08-08T04:53:27.633Z,1004.75
2017-08-08T04:54:16.761Z,1004.70
2017-08-08T04:55:10.873Z,1004.70
2017-08-08T04:56:05.862Z,1004.68
2017-08-08T04:56:54.789Z,1004.65
2017-08-08T04:57:48.852Z,1004.66
2017-08-08T04:58:42.925Z,1004.63
2017-08-08T04:59:37.898Z,1004.61
2017-08-08T05:00:32.065Z,1004.61
2017-08-08T05:01:26.088Z,1004.60
2017-08-08T05:02:21.189Z,1004.62
2017-08-08T05:03:10.119Z,1004.58
2017-08-08T05:04:10.218Z,1004.55
2017-08-08T05:05:05.253Z,1004.54
2017-08-08T05:06:05.552Z,1004.53
2017-08-08T05:07:05.212Z,1004.55
2017-08-08T05:08:05.386Z,1004.53
2017-08-08T05:09:05.401Z,1004.51
2017-08-08T05:10:05.493Z,1004.53
2017-08-08T05:11:05.534Z,1004.54
2017-08-08T05:12:05.568Z,1004.55
2017-08-08T05:12:53.611Z,1004.53
2017-08-08T05:13:48.568Z,1004.53
2017-08-08T05:14:37.604Z,1004.55
2017-08-08T05:15:32.688Z,1004.53
2017-08-08T05:16:26.693Z,1004.52
2017-08-08T05:17:27.678Z,1004.56
2017-08-08T05:18:22.866Z,1004.56
2017-08-08T05:19:16.751Z,1004.57
2017-08-08T05:20:05.790Z,1004.54
2017-08-08T05:20:54.885Z,1004.59
2017-08-08T05:21:50.008Z,1004.57
2017-08-08T05:22:50.020Z,1004.56
2017-08-08T05:23:43.992Z,1004.58
2017-08-08T05:24:45.068Z,1004.55
2017-08-08T05:25:40.127Z,1004.57
2017-08-08T05:26:35.147Z,1004.53
2017-08-08T05:27:29.104Z,1004.54
2017-08-08T05:28:29.245Z,1004.53
2017-08-08T05:29:23.358Z,1004.53
2017-08-08T05:30:18.247Z,1004.52
2017-08-08T05:31:18.362Z,1004.47
2017-08-08T05:32:12.355Z,1004.50
2017-08-08T05:33:12.538Z,1004.54
2017-08-08T05:34:06.491Z,1004.52
2017-08-08T05:35:01.436Z,1004.54
2017-08-08T05:36:02.589Z,1004.57
2017-08-08T05:36:51.571Z,1004.58
2017-08-08T05:37:40.640Z,1004.62
2017-08-08T05:38:29.849Z,1004.59
2017-08-08T05:39:24.742Z,1004.63
2017-08-08T05:40:18.715Z,1004.64
2017-08-08T05:41:19.822Z,1004.66
2017-08-08T05:42:14.909Z,1004.67
2017-08-08T05:43:08.889Z,1004.63
2017-08-08T05:43:56.947Z,1004.65
2017-08-08T05:44:51.982Z,1004.63
2017-08-08T05:45:46.053Z,1004.63
2017-08-08T05:46:40.020Z,1004.66
2017-08-08T05:47:40.085Z,1004.68
2017-08-08T05:48:35.106Z,1004.74
2017-08-08T05:49:24.326Z,1004.71
2017-08-08T05:50:13.244Z,1004.76
2017-08-08T05:51:02.355Z,1004.76
2017-08-08T05:52:02.312Z,1004.73
2017-08-08T05:52:56.345Z,1004.74
2017-08-08T05:53:56.429Z,1004.71
2017-08-08T05:54:51.632Z,1004.72
2017-08-08T05:55:51.445Z,1004.70
2017-08-08T05:56:45.524Z,1004.65
2017-08-08T05:57:45.528Z,1004.67
2017-08-08T05:58:39.653Z,1004.63
2017-08-08T05:59:34.645Z,1004.62
2017-08-08T06:00:34.695Z,1004.63
2017-08-08T06:01:29.790Z,1004.64
2017-08-08T06:02:24.782Z,1004.60
2017-08-08T06:03:18.800Z,1004.65
2017-08-08T06:04:18.797Z,1004.63
2017-08-08T06:05:14.010Z,1004.58
2017-08-08T06:06:08.997Z,1004.60
2017-08-08T06:07:08.984Z,1004.58
2017-08-08T06:08:04.053Z,1004.53
2017-08-08T06:08:59.062Z,1004.54
2017-08-08T06:09:59.040Z,1004.55
2017-08-08T06:10:59.191Z,1004.57
2017-08-08T06:11:47.324Z,1004.53
2017-08-08T06:12:36.269Z,1004.54
2017-08-08T06:13:30.333Z,1004.53
2017-08-08T06:14:18.385Z,1004.55
2017-08-08T06:15:06.524Z,1004.58
2017-08-08T06:16:01.453Z,1004.54
2017-08-08T06:16:55.479Z,1004.50
2017-08-08T06:17:49.526Z,1004.42
2017-08-08T06:18:50.566Z,1004.41
2017-08-08T06:19:44.526Z,1004.46
2017-08-08T06:20:44.633Z,1004.44
2017-08-08T06:21:39.620Z,1004.47
2017-08-08T06:22:33.766Z,1004.40
2017-08-08T06:23:27.731Z,1004.30
2017-08-08T06:24:21.826Z,1004.35
2017-08-08T06:25:21.846Z,1004.30
2017-08-08T06:26:17.004Z,1004.35
2017-08-08T06:27:11.045Z,1004.38
2017-08-08T06:28:10.955Z,1004.38
2017-08-08T06:29:00.064Z,1004.36
2017-08-08T06:29:54.184Z,1004.29
2017-08-08T06:30:54.087Z,1004.21
2017-08-08T06:31:49.101Z,1004.23
2017-08-08T06:32:43.289Z,1004.23
2017-08-08T06:33:38.354Z,1004.21
2017-08-08T06:34:33.357Z,1004.16
2017-08-08T06:35:33.378Z,1004.10
2017-08-08T06:36:27.434Z,1004.09
2017-08-08T06:37:21.507Z,1004.03
2017-08-08T06:38:16.596Z,1004.01
2017-08-08T06:39:10.706Z,1003.98
2017-08-08T06:40:04.689Z,1003.97
2017-08-08T06:40:53.666Z,1003.96
2017-08-08T06:41:42.758Z,1003.94
2017-08-08T06:42:37.801Z,1003.99
2017-08-08T06:43:37.847Z,1003.99
2017-08-08T06:44:32.014Z,1003.97
2017-08-08T06:45:25.950Z,1003.98
2017-08-08T06:46:19.967Z,1003.94
2017-08-08T06:47:14.066Z,1003.94
2017-08-08T06:48:09.185Z,1003.88
2017-08-08T06:49:03.264Z,1003.91
2017-08-08T06:49:52.264Z,1003.80
2017-08-08T06:50:47.350Z,1003.85
2017-08-08T06:51:36.355Z,1003.78
2017-08-08T06:52:31.466Z,1003.82
2017-08-08T06:53:31.407Z,1003.85
2017-08-08T06:54:20.445Z,1003.86
2017-08-08T06:55:08.630Z,1003.88
2017-08-08T06:56:02.639Z,1003.91
2017-08-08T06:56:56.696Z,1003.93
2017-08-08T06:57:51.677Z,1003.94
2017-08-08T06:58:51.827Z,1003.94
2017-08-08T06:59:45.840Z,1003.93
2017-08-08T07:00:39.906Z,1003.94
2017-08-08T07:01:34.978Z,1003.97
2017-08-08T07:02:30.092Z,1003.97
2017-08-08T07:03:18.981Z,1004.00
2017-08-08T07:04:13.184Z,1003.96
2017-08-08T07:05:07.099Z,1003.98
2017-08-08T07:06:01.155Z,1003.96
2017-08-08T07:06:55.199Z,1003.94
2017-08-08T07:07:43.234Z,1003.95
2017-08-08T07:08:43.247Z,1003.96
2017-08-08T07:09:31.374Z,1003.96
2017-08-08T07:10:25.486Z,1003.92
2017-08-08T07:11:14.574Z,1003.95
2017-08-08T07:12:02.573Z,1003.91
2017-08-08T07:13:02.595Z,1003.90
2017-08-08T07:13:51.713Z,1003.86
2017-08-08T07:14:40.696Z,1003.84
2017-08-08T07:15:34.824Z,1003.84
2017-08-08T07:16:28.892Z,1003.83
2017-08-08T07:17:28.890Z,1003.84
2017-08-08T07:18:24.008Z,1003.83
2017-08-08T07:19:11.986Z,1003.80
2017-08-08T07:20:00.091Z,1003.78
2017-08-08T07:20:49.106Z,1003.77
2017-08-08T07:21:43.101Z,1003.74
2017-08-08T07:22:31.148Z,1003.74
2017-08-08T07:23:26.290Z,1003.73
2017-08-08T07:24:26.240Z,1003.69
2017-08-08T07:25:20.399Z,1003.73
2017-08-08T07:26:14.495Z,1003.70
2017-08-08T07:27:14.548Z,1003.73
2017-08-08T07:28:14.595Z,1003.73
2017-08-08T07:29:08.593Z,1003.77
2017-08-08T07:30:03.631Z,1003.78
2017-08-08T07:30:58.685Z,1003.79
2017-08-08T07:31:52.785Z,1003.81
2017-08-08T07:32:46.954Z,1003.80
2017-08-08T07:33:34.955Z,1003.83
2017-08-08T07:34:23.037Z,1003.85
2017-08-08T07:35:11.027Z,1003.88
2017-08-08T07:36:05.215Z,1003.86
2017-08-08T07:37:00.204Z,1003.82
2017-08-08T07:38:01.291Z,1003.85
2017-08-08T07:38:50.289Z,1003.84
2017-08-08T07:39:44.410Z,1003.87
2017-08-08T07:40:32.443Z,1003.89
2017-08-08T07:41:26.513Z,1003.88
2017-08-08T07:42:14.512Z,1003.90
2017-08-08T07:43:02.631Z,1003.93
2017-08-08T07:43:50.678Z,1003.94
2017-08-08T07:44:44.682Z,1003.95
2017-08-08T07:45:38.734Z,1003.98
2017-08-08T07:46:27.878Z,1004.01
2017-08-08T07:47:16.781Z,1004.00
2017-08-08T07:48:18.018Z,1003.97
2017-08-08T07:49:07.031Z,1003.96
2017-08-08T07:50:07.062Z,1003.99
2017-08-08T07:51:02.200Z,1003.96
2017-08-08T07:52:02.213Z,1003.97
2017-08-08T07:52:51.147Z,1003.91
2017-08-08T07:53:46.318Z,1003.88
2017-08-08T07:54:41.340Z,1003.84
2017-08-08T07:55:42.413Z,1003.87
2017-08-08T07:56:37.436Z,1003.90
2017-08-08T07:57:32.480Z,1003.81
2017-08-08T07:58:27.614Z,1003.83
2017-08-08T07:59:21.565Z,1003.84
2017-08-08T08:00:09.684Z,1003.87
2017-08-08T08:01:04.748Z,1003.81
2017-08-08T08:01:53.777Z,1003.88
2017-08-08T08:02:47.798Z,1003.89
2017-08-08T08:03:41.841Z,1003.92
2017-08-08T08:04:41.867Z,1003.99
2017-08-08T08:05:42.018Z,1003.98
2017-08-08T08:06:30.024Z,1003.94
2017-08-08T08:07:23.994Z,1003.98
2017-08-08T08:08:19.036Z,1003.92
2017-08-08T08:09:14.207Z,1003.84
2017-08-08T08:10:09.274Z,1003.80
2017-08-08T08:11:04.303Z,1003.79
2017-08-08T08:11:53.342Z,1003.79
2017-08-08T08:12:42.428Z,1003.82
2017-08-08T08:13:37.395Z,1003.77
2017-08-08T08:14:37.497Z,1003.73
2017-08-08T08:15:37.610Z,1003.74
2017-08-08T08:16:31.571Z,1003.71
2017-08-08T08:17:25.677Z,1003.75
2017-08-08T08:18:14.904Z,1003.70
2017-08-08T08:19:02.787Z,1003.70
2017-08-08T08:20:02.865Z,1003.69
2017-08-08T08:20:56.914Z,1003.69
2017-08-08T08:21:56.898Z,1003.68
2017-08-08T08:22:51.047Z,1003.63
2017-08-08T08:23:50.978Z,1003.63
2017-08-08T08:24:40.059Z,1003.64
2017-08-08T08:25:29.203Z,1003.65
2017-08-08T08:26:24.206Z,1003.64
2017-08-08T08:27:24.205Z,1003.60
2017-08-08T08:28:13.419Z,1003.62
2017-08-08T08:29:02.348Z,1003.52
2017-08-08T08:30:02.416Z,1003.56
2017-08-08T08:31:03.524Z,1003.55
2017-08-08T08:32:03.460Z,1003.44
2017-08-08T08:32:58.588Z,1003.45
2017-08-08T08:33:53.617Z,1003.46
2017-08-08T08:34:53.659Z,1003.44
2017-08-08T08:35:48.638Z,1003.43
2017-08-08T08:36:42.797Z,1003.42
2017-08-08T08:37:37.806Z,1003.43
2017-08-08T08:38:31.925Z,1003.42
2017-08-08T08:39:25.940Z,1003.41
2017-08-08T08:40:15.016Z,1003.38
2017-08-08T08:41:03.092Z,1003.42
2017-08-08T08:41:58.109Z,1003.43
2017-08-08T08:42:52.231Z,1003.42
2017-08-08T08:43:47.143Z,1003.41
2017-08-08T08:44:47.188Z,1003.40
2017-08-08T08:45:41.174Z,1003.37
2017-08-08T08:46:41.227Z,1003.35
2017-08-08T08:47:35.333Z,1003.32
2017-08-08T08:48:30.407Z,1003.30
2017-08-08T08:49:25.471Z,1003.30
2017-08-08T08:50:13.562Z,1003.27
2017-08-08T08:51:07.615Z,1003.26
2017-08-08T08:52:07.671Z,1003.28
2017-08-08T08:52:56.756Z,1003.25
2017-08-08T08:53:50.941Z,1003.21
2017-08-08T08:54:44.760Z,1003.22
2017-08-08T08:55:39.875Z,1003.24
2017-08-08T08:56:34.919Z,1003.27
2017-08-08T08:57:28.920Z,1003.30
2017-08-08T08:58:22.988Z,1003.30
2017-08-08T08:59:12.004Z,1003.27
2017-08-08T09:00:12.032Z,1003.32
2017-08-08T09:01:01.174Z,1003.35
2017-08-08T09:01:56.171Z,1003.33
2017-08-08T09:02:50.362Z,1003.29
2017-08-08T09:03:50.349Z,1003.28
2017-08-08T09:04:39.372Z,1003.21
2017-08-08T09:05:28.477Z,1003.26
2017-08-08T09:06:28.477Z,1003.25
2017-08-08T09:07:23.646Z,1003.27
2017-08-08T09:08:12.610Z,1003.28
2017-08-08T09:09:06.696Z,1003.28
2017-08-08T09:09:55.813Z,1003.28
2017-08-08T09:10:44.720Z,1003.27
2017-08-08T09:11:44.768Z,1003.30
2017-08-08T09:12:44.884Z,1003.27
2017-08-08T09:13:39.980Z,1003.24
2017-08-08T09:14:33.991Z,1003.30
2017-08-08T09:15:23.093Z,1003.29
2017-08-08T09:16:17.110Z,1003.29
2017-08-08T09:17:12.107Z,1003.27
2017-08-08T09:18:06.119Z,1003.23
2017-08-08T09:19:01.328Z,1003.21
2017-08-08T09:20:01.296Z,1003.24
2017-08-08T09:20:56.309Z,1003.21
2017-08-08T09:21:50.396Z,1003.15
2017-08-08T09:22:44.528Z,1003.14
2017-08-08T09:23:38.474Z,1003.15
2017-08-08T09:24:27.537Z,1003.12
2017-08-08T09:25:21.735Z,1003.15
2017-08-08T09:26:15.633Z,1003.14
2017-08-08T09:27:04.811Z,1003.15
2017-08-08T09:27:53.752Z,1003.17
2017-08-08T09:28:48.974Z,1003.16
2017-08-08T09:29:42.965Z,1003.19
2017-08-08T09:30:30.949Z,1003.16
2017-08-08T09:31:25.110Z,1003.14
2017-08-08T09:32:19.170Z,1003.15
2017-08-08T09:33:13.073Z,1003.13
2017-08-08T09:34:13.184Z,1003.11
2017-08-08T09:35:02.240Z,1003.12
2017-08-08T09:35:56.285Z,1003.09
2017-08-08T09:36:51.624Z,1003.10
2017-08-08T09:37:45.492Z,1003.10
2017-08-08T09:38:34.546Z,1003.13
2017-08-08T09:39:29.596Z,1003.14
2017-08-08T09:40:24.607Z,1003.14
2017-08-08T09:41:24.610Z,1003.13
2017-08-08T09:42:19.607Z,1003.14
2017-08-08T09:43:19.764Z,1003.13
2017-08-08T09:44:08.830Z,1003.12
2017-08-08T09:45:02.841Z,1003.10
2017-08-08T09:45:56.983Z,1003.04
2017-08-08T09:46:50.919Z,1003.07
2017-08-08T09:47:45.059Z,1003.07
2017-08-08T09:48:39.001Z,1003.06
2017-08-08T09:49:33.167Z,1003.01
2017-08-08T09:50:22.198Z,1003.03
2017-08-08T09:51:17.276Z,1003.01
2017-08-08T09:52:11.411Z,1003.00
2017-08-08T09:53:11.230Z,1002.98
2017-08-08T09:54:00.346Z,1002.96
2017-08-08T09:54:49.522Z,1002.98
2017-08-08T09:55:49.553Z,1002.94
2017-08-08T09:56:43.528Z,1002.97
2017-08-08T09:57:43.600Z,1002.91
2017-08-08T09:58:32.869Z,1002.92
2017-08-08T09:59:21.738Z,1002.90
2017-08-08T10:00:15.726Z,1002.88
2017-08-08T10:01:04.958Z,1002.86
2017-08-08T10:01:59.908Z,1002.86
2017-08-08T10:02:59.894Z,1002.84
2017-08-08T10:03:54.038Z,1002.80
2017-08-08T10:04:54.976Z,1002.81
2017-08-08T10:05:50.093Z,1002.83
2017-08-08T10:06:39.105Z,1002.80
2017-08-08T10:07:33.170Z,1002.80
2017-08-08T10:08:22.276Z,1002.78
2017-08-08T10:09:11.183Z,1002.80
2017-08-08T10:10:05.321Z,1002.80
2017-08-08T10:10:53.406Z,1002.79
2017-08-08T10:11:47.452Z,1002.78
2017-08-08T10:12:47.377Z,1002.78
2017-08-08T10:13:36.588Z,1002.78
2017-08-08T10:14:24.558Z,1002.81
2017-08-08T10:15:25.706Z,1002.79
2017-08-08T10:16:19.573Z,1002.78
2017-08-08T10:17:19.735Z,1002.76
2017-08-08T10:18:08.846Z,1002.75
2017-08-08T10:19:08.855Z,1002.75
2017-08-08T10:20:02.980Z,1002.80
2017-08-08T10:20:57.995Z,1002.80
2017-08-08T10:21:57.959Z,1002.81
2017-08-08T10:22:52.094Z,1002.82
2017-08-08T10:23:52.096Z,1002.81
2017-08-08T10:24:46.142Z,1002.76
2017-08-08T10:25:35.348Z,1002.72
2017-08-08T10:26:29.305Z,1002.73
2017-08-08T10:27:24.257Z,1002.70
2017-08-08T10:28:18.290Z,1002.75
2017-08-08T10:29:07.543Z,1002.72
2017-08-08T10:30:01.325Z,1002.73
2017-08-08T10:30:49.343Z,1002.75
2017-08-08T10:31:44.562Z,1002.74
2017-08-08T10:32:33.281Z,1002.78
2017-08-08T10:33:27.609Z,1002.77
2017-08-08T10:34:27.719Z,1002.84
2017-08-08T10:35:21.657Z,1002.84
2017-08-08T10:36:16.599Z,1002.83
2017-08-08T10:37:05.879Z,1002.83
2017-08-08T10:38:06.037Z,1002.77
2017-08-08T10:39:01.083Z,1002.78
2017-08-08T10:39:55.076Z,1002.78
2017-08-08T10:40:50.132Z,1002.74
2017-08-08T10:41:44.138Z,1002.76
2017-08-08T10:42:39.247Z,1002.72
2017-08-08T10:43:39.198Z,1002.73
2017-08-08T10:44:34.386Z,1002.72
2017-08-08T10:45:29.445Z,1002.73
2017-08-08T10:46:29.493Z,1002.76
2017-08-08T10:47:29.453Z,1002.76
2017-08-08T10:48:23.469Z,1002.79
2017-08-08T10:49:17.681Z,1002.78
2017-08-08T10:50:11.590Z,1002.79
2017-08-08T10:51:05.690Z,1002.84
2017-08-08T10:52:00.271Z,1002.83
2017-08-08T10:52:54.594Z,1002.89
2017-08-08T10:53:43.758Z,1002.83
2017-08-08T10:54:38.620Z,1002.86
2017-08-08T10:55:28.036Z,1002.84
2017-08-08T10:56:21.637Z,1002.77
2017-08-08T10:57:22.086Z,1002.78
2017-08-08T10:58:17.097Z,1002.77
2017-08-08T10:59:06.085Z,1002.79
2017-08-08T11:00:00.127Z,1002.76
2017-08-08T11:01:00.339Z,1002.76
2017-08-08T11:01:54.281Z,1002.84
2017-08-08T11:02:54.019Z,1002.78
2017-08-08T11:03:48.375Z,1002.80
2017-08-08T11:04:36.153Z,1002.83
2017-08-08T11:05:24.167Z,1002.83